Time;durP1;ratioP1;P1;durP2;ratioP2;P2;SDS_P1;SDS_P2;PMS_P1;PMS_P2;Temp;Humidity;BMP_temperature;BMP_pressure;BME280_temperature;BME280_humidity;BME280_pressure;Samples;Min_cycle;Max_cycle;Signal;HPM_P1;HPM_P2
2023/01/10 00:02:18;;;;;;;2.47;1.23;;;;;;;3.94;100.00;101160.41;4927974;29;20024;-96
2023/01/10 00:04:44;;;;;;;2.40;1.30;;;;;;;3.93;100.00;101167.25;4928557;29;20066;-96
2023/01/10 00:07:09;;;;;;;1.73;1.35;;;;;;;3.92;100.00;101174.94;4932627;29;20021;-96
2023/01/10 00:09:51;;;;;;;3.05;1.40;;;;;;;3.91;100.00;101186.88;4934781;29;20028;-96
2023/01/10 00:15:06;;;;;;;2.63;1.52;;;;;;;3.89;100.00;101185.13;4928137;29;20047;-96
2023/01/10 00:17:31;;;;;;;3.17;1.88;;;;;;;3.90;100.00;101187.72;4911324;29;20096;-96
2023/01/10 00:19:57;;;;;;;2.58;1.70;;;;;;;3.90;100.00;101194.56;4910793;29;20031;-96
2023/01/10 00:22:24;;;;;;;2.47;1.60;;;;;;;3.87;100.00;101203.09;4910752;29;20116;-96
2023/01/10 00:25:00;;;;;;;2.80;1.60;;;;;;;3.86;100.00;101207.34;4910545;29;20028;-96
2023/01/10 00:27:25;;;;;;;3.05;1.40;;;;;;;3.83;100.00;101204.72;4912169;29;20029;-96
2023/01/10 00:29:54;;;;;;;2.75;1.73;;;;;;;3.81;100.00;101221.81;4925035;23;20035;-96
2023/01/10 00:32:21;;;;;;;3.05;1.73;;;;;;;3.80;100.00;101221.78;4908942;29;20124;-96
2023/01/10 00:35:05;;;;;;;4.28;1.95;;;;;;;3.76;100.00;101226.00;4905992;29;20029;-96
2023/01/10 00:37:31;;;;;;;3.38;2.10;;;;;;;3.73;100.00;101233.63;4911123;29;20025;-96
2023/01/10 00:39:57;;;;;;;4.18;2.20;;;;;;;3.72;100.00;101244.72;4911157;29;20573;-96
2023/01/10 00:45:29;;;;;;;5.43;2.00;;;;;;;3.62;100.00;101235.13;4909936;29;20520;-96
2023/01/10 00:47:55;;;;;;;2.97;1.75;;;;;;;3.64;100.00;101248.84;4915914;23;20033;-96
2023/01/10 00:50:21;;;;;;;2.95;1.90;;;;;;;3.63;100.00;101247.13;4912952;29;20052;-96
2023/01/10 00:52:47;;;;;;;4.00;1.73;;;;;;;3.62;100.00;101237.69;4915206;29;20032;-96
2023/01/10 00:55:13;;;;;;;4.80;1.90;;;;;;;3.62;100.00;101246.25;4912254;29;20233;-96
2023/01/10 00:57:57;;;;;;;3.08;1.98;;;;;;;3.58;100.00;101231.63;4914925;29;20032;-96
2023/01/10 01:00:23;;;;;;;5.30;2.20;;;;;;;3.56;100.00;101246.13;4883616;29;20066;-95
2023/01/10 01:02:50;;;;;;;5.32;2.10;;;;;;;3.55;100.00;101250.41;4919105;29;20028;-96
2023/01/10 01:05:28;;;;;;;5.50;2.05;;;;;;;3.54;100.00;101250.38;4916268;29;20021;-96
2023/01/10 01:07:53;;;;;;;4.90;2.10;;;;;;;3.51;100.00;101251.16;4915963;29;20029;-96
2023/01/10 01:10:52;;;;;;;4.05;2.20;;;;;;;3.53;100.00;101262.34;4920555;29;20013;-96
2023/01/10 01:13:18;;;;;;;3.65;2.00;;;;;;;3.53;100.00;101266.63;4921948;29;20017;-96
2023/01/10 01:15:59;;;;;;;6.65;2.13;;;;;;;3.50;100.00;101267.41;4918525;29;20036;-96
2023/01/10 01:18:26;;;;;;;2.97;1.85;;;;;;;3.53;100.00;101282.03;4922361;29;20017;-96
2023/01/10 01:20:55;;;;;;;4.05;2.20;;;;;;;3.49;100.00;101285.34;4922567;29;20051;-96
2023/01/10 01:23:27;;;;;;;3.80;1.90;;;;;;;3.48;100.00;101274.22;4924039;29;20025;-96
2023/01/10 01:25:54;;;;;;;4.32;1.90;;;;;;;3.50;100.00;101280.22;4917528;29;20111;-96
2023/01/10 01:28:22;;;;;;;3.90;2.25;;;;;;;3.51;100.00;101284.53;4914843;29;20091;-96
2023/01/10 01:31:06;;;;;;;5.85;2.30;;;;;;;3.49;100.00;101285.34;4914738;29;20033;-96
2023/01/10 01:33:31;;;;;;;3.90;1.95;;;;;;;3.51;100.00;101288.81;4913799;29;20092;-96
2023/01/10 01:35:57;;;;;;;5.68;2.40;;;;;;;3.51;100.00;101293.94;4912078;29;20100;-96
2023/01/10 01:38:22;;;;;;;6.97;2.47;;;;;;;3.52;100.00;101291.41;4911942;29;20060;-96
2023/01/10 01:41:55;;;;;;;7.10;2.45;;;;;;;3.50;100.00;101299.91;4915900;29;20025;-96
2023/01/10 01:43:59;;;;;;;5.53;2.20;;;;;;;3.50;100.00;101305.91;4890998;29;20047;-96
2023/01/10 01:46:24;;;;;;;7.72;2.55;;;;;;;3.49;100.00;101305.88;4891296;29;20033;-96
2023/01/10 01:48:50;;;;;;;4.38;2.42;;;;;;;3.52;100.00;101314.50;4910071;29;20075;-97
2023/01/10 01:51:33;;;;;;;8.48;2.80;;;;;;;3.58;100.00;101308.63;4916999;29;20037;-96
2023/01/10 01:54:06;;;;;;;12.32;2.90;;;;;;;3.61;100.00;101307.81;4917534;29;20024;-96
2023/01/10 01:56:50;;;;;;;12.70;3.55;;;;;;;3.66;100.00;101313.94;4909204;29;20481;-96
2023/01/10 01:59:37;;;;;;;9.57;3.47;;;;;;;3.70;100.00;101320.88;4918191;29;20378;-96
2023/01/10 02:02:07;;;;;;;;;;;;;;;3.74;100.00;101327.78;4927945;29;20047;-96
2023/01/10 02:04:56;;;;;;;10.48;4.25;;;;;;;3.74;100.00;101332.91;4924245;29;19915;-96
2023/01/10 02:07:23;;;;;;;11.18;4.13;;;;;;;3.73;100.00;101328.63;4923756;29;20032;-96
2023/01/10 02:10:14;;;;;;;13.05;4.15;;;;;;;3.73;100.00;101333.75;4925645;29;20107;-95
2023/01/10 02:12:41;;;;;;;7.05;3.50;;;;;;;3.75;100.00;101329.53;4923917;29;20028;-96
2023/01/10 02:15:21;;;;;;;10.75;3.90;;;;;;;3.77;100.00;101332.13;4924171;29;20103;-96
2023/01/10 02:17:47;;;;;;;9.43;4.22;;;;;;;3.78;100.00;101333.84;4924204;29;20032;-96
2023/01/10 02:20:14;;;;;;;8.40;3.80;;;;;;;3.78;100.00;101331.28;4924139;29;20470;-96
2023/01/10 02:23:06;;;;;;;8.52;3.55;;;;;;;3.81;100.00;101341.63;4927339;29;20545;-96
2023/01/10 02:26:04;;;;;;;11.63;3.80;;;;;;;3.84;100.00;101344.25;4930262;29;20100;-96
2023/01/10 02:28:57;;;;;;;8.25;3.42;;;;;;;3.86;100.00;101346.00;4910705;29;20043;-96
2023/01/10 02:35:33;;;;;;;10.73;3.50;;;;;;;3.85;100.00;101346.84;4911272;29;20045;-96
2023/01/10 02:38:43;;;;;;;9.45;3.47;;;;;;;3.81;100.00;101339.94;4851067;29;20397;-96
2023/01/10 02:41:28;;;;;;;8.13;3.28;;;;;;;3.87;100.00;101339.19;4856553;29;20053;-96
2023/01/10 02:44:03;;;;;;;9.25;3.35;;;;;;;3.83;100.00;101342.53;4910171;29;20076;-96
2023/01/10 02:46:50;;;;;;;6.13;2.78;;;;;;;3.82;100.00;101338.22;4912763;29;20052;-96
2023/01/10 02:49:28;;;;;;;5.70;2.58;;;;;;;3.82;100.00;101336.53;4910910;29;20048;-96
2023/01/10 02:51:54;;;;;;;5.07;2.60;;;;;;;3.82;100.00;101340.78;4911978;29;20039;-96
2023/01/10 02:54:40;;;;;;;8.30;2.80;;;;;;;3.80;100.00;101347.59;4910187;29;20025;-96
2023/01/10 02:57:08;;;;;;;5.90;2.60;;;;;;;3.82;100.00;101357.06;4910772;29;20308;-96
2023/01/10 03:00:10;;;;;;;7.35;2.60;;;;;;;3.77;100.00;101356.09;4910210;29;20041;-96
2023/01/10 03:02:49;;;;;;;5.22;2.50;;;;;;;3.73;100.00;101362.00;4911531;29;20040;-96
2023/01/10 03:05:43;;;;;;;6.93;2.55;;;;;;;3.69;100.00;101358.50;4909487;29;20040;-96
2023/01/10 03:08:36;;;;;;;3.38;1.90;;;;;;;3.65;100.00;101369.56;4908819;29;20033;-96
2023/01/10 03:11:09;;;;;;;3.72;1.85;;;;;;;3.59;100.00;101361.69;4906743;29;20115;-96
2023/01/10 03:13:54;;;;;;;4.28;2.17;;;;;;;3.58;100.00;101375.38;4908349;29;20037;-96
2023/01/10 03:16:41;;;;;;;3.42;1.98;;;;;;;3.54;100.00;101379.56;4906177;29;20459;-96
2023/01/10 03:19:11;;;;;;;5.63;2.20;;;;;;;3.55;100.00;101388.13;4908377;29;20076;-96
2023/01/10 03:21:53;;;;;;;6.93;2.35;;;;;;;3.52;100.00;101394.06;4908223;29;20088;-96
2023/01/10 03:24:27;;;;;;;5.00;2.30;;;;;;;3.51;100.00;101400.03;4907763;29;20028;-96
2023/01/10 03:27:19;;;;;;;5.75;2.30;;;;;;;3.51;100.00;101412.00;4907258;29;20036;-96
2023/01/10 03:29:55;;;;;;;4.88;2.10;;;;;;;3.52;100.00;101414.59;4907276;29;20073;-96
2023/01/10 03:32:41;;;;;;;6.60;1.90;;;;;;;3.53;100.00;101407.78;4889628;29;20474;-96
2023/01/10 03:35:08;;;;;;;5.80;2.10;;;;;;;3.55;100.00;101409.53;4892502;29;20045;-96
2023/01/10 03:37:56;;;;;;;5.45;2.10;;;;;;;3.56;100.00;101410.38;4888090;29;20021;-96
2023/01/10 03:40:42;;;;;;;8.82;2.47;;;;;;;3.59;100.00;101414.75;4891264;29;20112;-96
2023/01/10 03:46:20;;;;;;;6.25;2.22;;;;;;;3.66;100.00;101420.03;4896948;29;20044;-96
2023/01/10 03:48:48;;;;;;;5.63;2.15;;;;;;;3.65;100.00;101420.88;4888664;29;20049;-96
2023/01/10 03:51:16;;;;;;;6.80;2.17;;;;;;;3.68;100.00;101425.22;4891524;29;20039;-96
2023/01/10 03:53:58;;;;;;;6.63;2.08;;;;;;;3.70;100.00;101432.13;4905848;29;20382;-96
2023/01/10 03:56:23;;;;;;;7.10;2.30;;;;;;;3.68;100.00;101436.34;4904742;29;20085;-96
2023/01/10 03:58:48;;;;;;;5.80;2.20;;;;;;;3.69;100.00;101438.06;4903014;29;20025;-96
2023/01/10 04:01:14;;;;;;;5.28;2.22;;;;;;;3.71;100.00;101436.41;4902680;29;20048;-96
2023/01/10 04:03:54;;;;;;;5.90;2.30;;;;;;;3.76;100.00;101453.63;4903550;29;20024;-96
2023/01/10 04:06:19;;;;;;;9.40;2.47;;;;;;;3.75;100.00;101447.63;4902605;29;20051;-96
2023/01/10 04:08:45;;;;;;;7.47;2.22;;;;;;;3.76;100.00;101457.06;4902891;29;20037;-94
2023/01/10 04:11:26;;;;;;;7.18;2.35;;;;;;;3.78;100.00;101460.53;4903660;29;20052;-96
2023/01/10 04:13:51;;;;;;;3.10;2.00;;;;;;;3.75;100.00;101460.47;4904573;29;20056;-96
2023/01/10 04:16:16;;;;;;;6.05;2.17;;;;;;;3.75;100.00;101459.59;4902793;29;20028;-96
2023/01/10 04:18:42;;;;;;;4.57;2.10;;;;;;;3.74;100.00;101468.13;4902385;29;20442;-96
2023/01/10 04:21:07;;;;;;;5.07;1.95;;;;;;;3.72;100.00;101468.09;4906550;29;20031;-96
2023/01/10 04:23:51;;;;;;;5.82;2.00;;;;;;;3.72;100.00;101470.66;4905406;29;20059;-95
2023/01/10 04:26:19;;;;;;;5.38;2.40;;;;;;;3.65;100.00;101474.81;4903556;29;20020;-96
2023/01/10 04:28:44;;;;;;;8.40;2.28;;;;;;;3.63;100.00;101480.72;4907038;29;20440;-96
2023/01/10 04:31:10;;;;;;;7.13;2.17;;;;;;;3.61;100.00;101479.78;4908358;29;20048;-96
2023/01/10 04:33:43;;;;;;;5.70;2.05;;;;;;;3.59;100.00;101471.22;4907023;29;20029;-96
2023/01/10 04:36:09;;;;;;;4.15;2.15;;;;;;;3.58;100.00;101483.16;4908569;29;20037;-96
2023/01/10 04:38:34;;;;;;;4.75;2.10;;;;;;;3.56;100.00;101479.69;4908379;29;20096;-96
2023/01/10 04:41:00;;;;;;;5.30;1.98;;;;;;;3.53;100.00;101471.94;4909440;29;20103;-96
2023/01/10 04:43:31;;;;;;;5.35;2.00;;;;;;;3.54;100.00;101465.97;4909004;29;20028;-96
2023/01/10 04:45:57;;;;;;;3.85;1.90;;;;;;;3.51;100.00;101474.44;4908534;29;20037;-96
2023/01/10 04:48:22;;;;;;;6.72;1.95;;;;;;;3.49;100.00;101467.56;4908323;29;20051;-96
2023/01/10 04:50:49;;;;;;;4.85;1.80;;;;;;;3.48;100.00;101479.53;4904851;29;20355;-96
2023/01/10 04:53:18;;;;;;;7.03;1.92;;;;;;;3.47;100.00;101488.06;4902723;29;20041;-96
2023/01/10 04:55:44;;;;;;;5.78;2.00;;;;;;;3.45;100.00;101493.97;4906019;29;20052;-96
2023/01/10 04:58:09;;;;;;;6.82;2.33;;;;;;;3.47;100.00;101498.31;4902079;29;20224;-96
2023/01/10 05:00:46;;;;;;;7.72;2.33;;;;;;;3.48;100.00;101496.63;4902484;29;20029;-96
2023/01/10 05:03:12;;;;;;;5.88;2.20;;;;;;;3.44;100.00;101494.78;4902637;29;20017;-96
2023/01/10 05:05:37;;;;;;;7.75;2.40;;;;;;;3.43;100.00;101477.69;4902559;29;20032;-96
2023/01/10 05:08:03;;;;;;;7.25;2.20;;;;;;;3.45;100.00;101486.25;4903602;29;20089;-96
2023/01/10 05:10:43;;;;;;;8.27;2.20;;;;;;;3.44;100.00;101482.84;4902998;29;20430;-96
2023/01/10 05:13:08;;;;;;;5.72;2.00;;;;;;;3.45;100.00;101494.84;4903183;29;20033;-96
2023/01/10 05:15:34;;;;;;;6.93;1.90;;;;;;;3.40;100.00;101494.75;4903080;29;20088;-96
2023/01/10 05:18:13;;;;;;;5.43;1.90;;;;;;;3.39;100.00;101505.81;4902328;29;20036;-96
2023/01/10 05:20:38;;;;;;;6.75;2.20;;;;;;;3.38;100.00;101526.28;4901623;29;20052;-95
2023/01/10 05:23:04;;;;;;;11.13;2.47;;;;;;;3.40;100.00;101534.91;4903037;29;20035;-96
2023/01/10 05:25:38;;;;;;;8.52;2.28;;;;;;;3.38;100.00;101541.69;4906836;29;20112;-96
2023/01/10 05:28:06;;;;;;;9.68;2.40;;;;;;;3.40;100.00;101543.50;4903059;29;20037;-96
2023/01/10 05:30:31;;;;;;;7.97;2.25;;;;;;;3.42;100.00;101540.94;4902969;29;20033;-94
2023/01/10 05:32:57;;;;;;;6.57;2.30;;;;;;;3.44;100.00;101534.16;4903100;29;20031;-96
2023/01/10 05:35:22;;;;;;;11.80;2.50;;;;;;;3.49;100.00;101536.84;4905769;29;20028;-96
2023/01/10 05:37:47;;;;;;;8.85;2.65;;;;;;;3.51;100.00;101542.91;4904371;29;20037;-96
2023/01/10 05:40:27;;;;;;;6.85;2.28;;;;;;;3.55;100.00;101549.81;4905153;29;20040;-96
2023/01/10 05:42:53;;;;;;;12.55;2.83;;;;;;;3.56;100.00;101546.44;4904592;29;20382;-96
2023/01/10 05:45:18;;;;;;;7.05;2.50;;;;;;;3.57;100.00;101537.03;4905497;29;20025;-96
2023/01/10 05:48:06;;;;;;;7.60;2.13;;;;;;;3.59;100.00;101543.94;4905407;29;20021;-96
2023/01/10 05:50:41;;;;;;;10.23;3.00;;;;;;;3.61;100.00;101562.81;4887271;29;20056;-96
2023/01/10 05:53:06;;;;;;;12.90;2.55;;;;;;;3.62;100.00;101564.56;4905852;29;20032;-96
2023/01/10 05:55:32;;;;;;;10.77;2.70;;;;;;;3.64;100.00;101562.91;4905194;29;20025;-96
2023/01/10 05:57:58;;;;;;;10.47;2.37;;;;;;;3.68;100.00;101569.84;4905042;29;20088;-96
2023/01/10 06:00:41;;;;;;;8.10;2.13;;;;;;;3.71;100.00;101567.34;4904688;29;20033;-96
2023/01/10 06:03:06;;;;;;;7.80;2.20;;;;;;;3.74;100.00;101574.25;4903156;29;20029;-96
2023/01/10 06:08:18;;;;;;;9.75;2.40;;;;;;;3.80;100.00;101583.81;4880908;29;20071;-93
2023/01/10 06:10:43;;;;;;;9.88;2.55;;;;;;;3.79;100.00;101564.97;4883911;29;20033;-96
2023/01/10 06:13:09;;;;;;;6.80;1.90;;;;;;;3.79;100.00;101576.94;4892310;29;20013;-96
2023/01/10 06:15:46;;;;;;;9.90;2.33;;;;;;;3.78;100.00;101567.50;4869716;29;20029;-91
2023/01/10 06:18:11;;;;;;;11.25;2.70;;;;;;;3.78;100.00;101562.34;4880727;29;20060;-92
2023/01/10 06:20:37;;;;;;;10.45;2.20;;;;;;;3.76;100.00;101572.59;4880315;29;20029;-92
2023/01/10 06:23:45;;;;;;;;;;;;;;;;;;;;;
2023/01/10 06:26:15;;;;;;;7.18;2.05;;;;;;;3.78;100.00;101586.34;4874274;29;20037;-92
2023/01/10 06:28:53;;;;;;;6.68;2.00;;;;;;;3.80;100.00;101583.81;4880364;29;20036;-92
2023/01/10 06:31:18;;;;;;;7.90;2.20;;;;;;;3.81;100.00;101591.56;4879839;29;20040;-92
2023/01/10 06:33:43;;;;;;;10.15;2.15;;;;;;;3.79;100.00;101588.09;4880583;29;20029;-92
2023/01/10 06:36:09;;;;;;;10.38;2.63;;;;;;;3.89;100.00;101581.47;4880595;29;20036;-90
2023/01/10 06:38:34;;;;;;;10.98;2.55;;;;;;;3.82;100.00;101588.19;4880580;29;20088;-90
2023/01/10 06:41:11;;;;;;;7.90;2.20;;;;;;;3.83;100.00;101594.16;4880203;29;20386;-92
2023/01/10 06:43:37;;;;;;;;;;;;;;;3.83;100.00;101592.44;4863985;29;20026;-91
2023/01/10 06:46:02;;;;;;;9.17;2.40;;;;;;;3.80;100.00;101594.97;4879828;29;19923;-92
2023/01/10 06:48:27;;;;;;;7.90;2.47;;;;;;;3.79;100.00;101597.47;4878797;29;20081;-92
2023/01/10 06:50:53;;;;;;;9.70;2.35;;;;;;;3.77;100.00;101600.00;4880269;29;20068;-92
2023/01/10 06:53:18;;;;;;;8.73;2.10;;;;;;;3.76;100.00;101615.41;4879695;29;20093;-89
2023/01/10 06:55:44;;;;;;;8.70;2.42;;;;;;;3.71;100.00;101613.56;4880036;29;20033;-90
2023/01/10 06:58:17;;;;;;;8.13;2.33;;;;;;;3.65;100.00;101612.53;4879596;29;20476;-93
2023/01/10 07:03:17;;;;;;;10.27;2.30;;;;;;;3.63;100.00;101634.72;5403650;23;20127;-96
2023/01/10 07:05:43;;;;;;;6.78;2.10;;;;;;;3.60;100.00;101634.66;4932671;29;20032;-96
2023/01/10 07:08:08;;;;;;;7.72;2.35;;;;;;;3.54;100.00;101619.97;4979990;23;20059;-95
2023/01/10 07:13:14;;;;;;;6.03;2.13;;;;;;;3.50;100.00;101648.94;4928966;29;20040;-96
2023/01/10 07:28:41;;;;;;;9.73;2.50;;;;;;;3.44;100.00;101669.28;5293171;23;20056;-96
2023/01/10 07:33:42;;;;;;;8.00;2.42;;;;;;;3.43;100.00;101688.97;5213182;23;20088;-94
2023/01/10 07:36:07;;;;;;;11.35;2.40;;;;;;;3.43;100.00;101690.69;4920396;29;20032;-95
2023/01/10 07:38:33;;;;;;;10.93;2.55;;;;;;;3.45;100.00;101687.31;4921784;29;20032;-93
2023/01/10 07:41:01;;;;;;;13.20;2.95;;;;;;;3.44;100.00;101697.53;4926972;29;20051;-95
2023/01/10 07:43:26;;;;;;;9.10;2.38;;;;;;;3.52;100.00;101702.06;4939185;29;20082;-95
2023/01/10 07:45:59;;;;;;;9.68;2.72;;;;;;;3.49;100.00;101707.09;4925934;29;20028;-94
2023/01/10 07:48:37;;;;;;;11.45;2.78;;;;;;;3.53;100.00;101702.94;4923068;29;20086;-96
2023/01/10 07:51:03;;;;;;;15.23;3.08;;;;;;;3.50;100.00;101701.13;4924052;29;20035;-96
2023/01/10 07:53:29;;;;;;;6.32;2.15;;;;;;;3.51;100.00;101707.16;4920810;29;20029;-95
2023/01/10 07:55:58;;;;;;;13.07;3.10;;;;;;;3.55;100.00;101712.41;4920341;29;20031;-95
2023/01/10 07:58:24;;;;;;;13.02;2.90;;;;;;;3.52;100.00;101707.19;4927575;29;20040;-95
2023/01/10 08:00:49;;;;;;;10.65;2.30;;;;;;;3.53;100.00;101720.91;4939398;29;20032;-95
2023/01/10 08:03:15;;;;;;;7.93;2.28;;;;;;;3.52;100.00;101727.72;4939110;29;20397;-95
2023/01/10 08:05:58;;;;;;;12.85;2.72;;;;;;;3.51;100.00;101713.13;4938751;29;20024;-95
2023/01/10 08:08:23;;;;;;;8.48;2.33;;;;;;;3.53;100.00;101715.78;4939290;29;20392;-95
2023/01/10 08:10:58;;;;;;;7.38;2.40;;;;;;;3.54;100.00;101705.53;4938820;29;20020;-95
2023/01/10 08:13:24;;;;;;;9.75;2.35;;;;;;;3.64;100.00;101713.47;4930935;29;20035;-95
2023/01/10 08:16:02;;;;;;;6.78;2.40;;;;;;;3.58;100.00;101711.63;4930852;29;20020;-95
2023/01/10 08:18:28;;;;;;;6.10;2.10;;;;;;;3.60;100.00;101709.13;4938665;29;20040;-95
2023/01/10 08:20:59;;;;;;;11.13;2.42;;;;;;;3.60;100.00;101711.69;4939143;29;20050;-96
2023/01/10 08:23:26;;;;;;;10.32;2.30;;;;;;;3.62;100.00;101718.59;4938914;29;20050;-96
2023/01/10 08:26:01;;;;;;;9.60;2.22;;;;;;;3.59;100.00;101705.66;4934673;29;20020;-94
2023/01/10 08:31:05;;;;;;;11.30;2.50;;;;;;;3.61;100.00;101716.84;4926528;23;20057;-95
2023/01/10 08:33:30;;;;;;;6.95;2.08;;;;;;;3.59;100.00;101718.50;4934821;29;20032;-96
2023/01/10 08:35:56;;;;;;;9.18;2.17;;;;;;;3.62;100.00;101733.09;4938798;29;20118;-96
2023/01/10 08:38:21;;;;;;;9.90;2.13;;;;;;;3.63;100.00;101722.91;4938511;29;20298;-96
2023/01/10 08:40:46;;;;;;;10.10;2.38;;;;;;;3.61;100.00;101716.84;4938125;29;20090;-96
2023/01/10 08:43:13;;;;;;;6.18;2.30;;;;;;;3.65;100.00;101715.22;4938788;29;20380;-96
2023/01/10 08:45:39;;;;;;;11.80;2.38;;;;;;;3.70;100.00;101716.22;4938869;29;20032;-96
2023/01/10 08:48:08;;;;;;;9.20;2.35;;;;;;;3.72;100.00;101714.56;4925522;29;20477;-96
2023/01/10 08:50:33;;;;;;;8.60;2.10;;;;;;;3.73;100.00;101718.00;4935186;29;20107;-96
2023/01/10 08:52:59;;;;;;;7.95;2.20;;;;;;;3.77;100.00;101717.28;4937900;29;20103;-94
2023/01/10 08:55:34;;;;;;;7.00;2.00;;;;;;;3.76;100.00;101716.38;4938719;29;20027;-94
2023/01/10 08:58:00;;;;;;;11.05;2.53;;;;;;;3.79;100.00;101708.78;4900775;29;20515;-89
2023/01/10 09:00:25;;;;;;;10.53;2.57;;;;;;;3.83;100.00;101710.56;4900735;29;20363;-90
2023/01/10 09:02:50;;;;;;;11.35;2.33;;;;;;;3.83;100.00;101700.31;4900859;29;20091;-94
2023/01/10 09:05:16;;;;;;;10.30;2.50;;;;;;;3.89;100.00;101706.44;4912068;29;20072;-84
2023/01/10 09:07:58;;;;;;;6.03;2.13;;;;;;;3.97;100.00;101708.38;4919440;29;20489;-92
2023/01/10 09:10:24;;;;;;;6.85;2.38;;;;;;;3.92;100.00;101709.09;4919784;29;20028;-90
2023/01/10 09:12:55;;;;;;;12.52;2.38;;;;;;;3.94;100.00;101705.72;4919948;29;20095;-91
2023/01/10 09:15:32;;;;;;;11.80;2.80;;;;;;;3.96;100.00;101703.19;4917966;29;20517;-91
2023/01/10 09:18:04;;;;;;;12.20;2.70;;;;;;;3.98;100.00;101698.97;4919382;29;20120;-91
2023/01/10 09:20:32;;;;;;;13.50;3.20;;;;;;;4.01;100.00;101711.91;4919871;29;20051;-88
2023/01/10 09:22:59;;;;;;;11.07;2.65;;;;;;;4.02;100.00;101706.78;4919231;29;20473;-89
2023/01/10 09:25:28;;;;;;;11.27;2.88;;;;;;;4.00;100.00;101705.88;4927063;29;20012;-88
2023/01/10 09:27:57;;;;;;;11.43;2.80;;;;;;;4.01;100.00;101691.34;4917812;29;20036;-87
2023/01/10 09:30:23;;;;;;;9.02;2.20;;;;;;;4.03;100.00;101699.97;4916546;29;20052;-88
2023/01/10 09:32:50;;;;;;;11.30;2.63;;;;;;;4.04;100.00;101703.41;4918468;29;20370;-88
2023/01/10 09:35:15;;;;;;;10.48;2.83;;;;;;;4.05;100.00;101700.00;4918273;29;20099;-88
2023/01/10 09:37:47;;;;;;;9.52;2.30;;;;;;;4.02;100.00;101695.66;4917477;29;20445;-88
2023/01/10 09:40:16;;;;;;;8.77;2.20;;;;;;;4.09;100.00;101705.25;4918245;29;20039;-88
2023/01/10 09:42:47;;;;;;;8.02;2.25;;;;;;;4.09;100.00;101699.25;4918629;29;20035;-88
2023/01/10 09:45:33;;;;;;;7.20;2.17;;;;;;;4.12;100.00;101704.44;4918148;29;20028;-88
2023/01/10 09:48:21;;;;;;;6.63;1.88;;;;;;;4.16;100.00;101694.31;4918977;29;20134;-92
2023/01/10 09:51:23;;;;;;;7.57;2.15;;;;;;;4.20;100.00;101705.53;4918645;29;20043;-92
2023/01/10 09:54:00;;;;;;;9.50;2.30;;;;;;;4.22;99.96;101692.72;4918792;29;20402;-92
2023/01/10 09:56:28;;;;;;;7.50;2.20;;;;;;;4.27;100.00;101698.84;4918548;29;20653;-88
2023/01/10 09:58:55;;;;;;;11.23;2.30;;;;;;;4.28;99.82;101693.72;4918409;29;20111;-93
2023/01/10 10:01:53;;;;;;;7.30;2.15;;;;;;;4.35;99.76;101686.16;4921417;29;20544;-92
2023/01/10 10:04:31;;;;;;;8.20;2.15;;;;;;;4.41;99.71;101697.47;4915038;29;20036;-93
2023/01/10 10:06:56;;;;;;;8.63;2.30;;;;;;;4.44;99.79;101697.53;4920191;29;20107;-91
2023/01/10 10:09:37;;;;;;;8.18;2.10;;;;;;;4.47;99.26;101701.88;4918009;29;20524;-91
2023/01/10 10:12:22;;;;;;;8.38;2.60;;;;;;;4.54;98.94;101713.19;4918547;29;20038;-91
2023/01/10 10:15:12;;;;;;;8.45;2.35;;;;;;;4.59;99.27;101697.03;4899801;29;20028;-92
2023/01/10 10:17:51;;;;;;;7.82;2.05;;;;;;;4.64;99.11;101687.72;4899352;29;20123;-92
2023/01/10 10:20:27;;;;;;;8.05;2.05;;;;;;;4.71;99.59;101680.13;4899248;29;20059;-92
2023/01/10 10:23:04;;;;;;;9.52;2.67;;;;;;;4.76;99.64;101683.69;4899577;29;20024;-92
2023/01/10 10:25:56;;;;;;;12.10;2.40;;;;;;;4.87;98.57;101674.53;4899274;29;20367;-91
2023/01/10 10:28:43;;;;;;;10.18;2.33;;;;;;;4.87;99.20;101673.63;4898864;29;20025;-92
2023/01/10 10:31:20;;;;;;;9.10;2.10;;;;;;;4.90;99.42;101677.13;4898779;29;20047;-84
2023/01/10 10:33:57;;;;;;;9.65;2.20;;;;;;;4.94;98.89;101668.66;4899219;29;20038;-92
2023/01/10 10:36:44;;;;;;;6.65;2.00;;;;;;;4.97;99.10;101667.00;4898981;29;20040;-92
2023/01/10 10:39:15;;;;;;;6.10;1.75;;;;;;;5.01;99.49;101669.66;4898904;29;20037;-92
2023/01/10 10:41:43;;;;;;;4.28;1.92;;;;;;;5.03;98.78;101657.69;4899413;29;20029;-91
2023/01/10 10:44:50;;;;;;;11.63;2.42;;;;;;;5.08;98.34;101644.94;4898658;29;20024;-92
2023/01/10 10:47:20;;;;;;;9.57;2.20;;;;;;;5.08;98.52;101642.34;4898675;29;20112;-92
2023/01/10 10:49:53;;;;;;;10.48;2.40;;;;;;;5.16;97.83;101640.78;4898808;29;20031;-92
2023/01/10 10:52:29;;;;;;;13.05;2.80;;;;;;;5.21;97.77;101634.03;4899031;29;20032;-91
2023/01/10 10:54:54;;;;;;;11.43;2.30;;;;;;;5.16;98.14;101627.94;4899100;29;20470;-92
2023/01/10 10:57:24;;;;;;;5.82;2.15;;;;;;;5.17;98.41;101628.81;4898108;29;20032;-92
2023/01/10 10:59:50;;;;;;;8.45;2.13;;;;;;;5.20;98.28;101624.59;4899055;29;20025;-92
2023/01/10 11:02:41;;;;;;;9.87;2.00;;;;;;;5.22;98.47;101624.59;4898791;29;20032;-91
2023/01/10 11:05:16;;;;;;;9.20;2.05;;;;;;;5.28;98.09;101618.72;4898521;29;20447;-92
2023/01/10 11:07:42;;;;;;;9.38;2.50;;;;;;;5.30;97.89;101620.47;4898817;29;20032;-92
2023/01/10 11:13:02;;;;;;;9.10;2.40;;;;;;;5.38;98.06;101606.06;4899118;29;20070;-92
2023/01/10 11:15:35;;;;;;;12.05;2.50;;;;;;;5.41;97.59;101606.09;4898345;29;20027;-92
2023/01/10 11:18:15;;;;;;;9.75;2.30;;;;;;;5.46;98.07;101602.75;4912135;29;20044;-92
2023/01/10 11:21:00;;;;;;;6.85;2.35;;;;;;;5.48;98.03;101604.50;4917527;29;20030;-92
2023/01/10 11:23:49;;;;;;;11.32;2.22;;;;;;;5.53;97.88;101599.41;4917611;29;20035;-92
2023/01/10 11:26:25;;;;;;;13.00;2.50;;;;;;;5.51;97.38;101598.56;4917077;29;20028;-92
2023/01/10 11:29:02;;;;;;;8.82;2.53;;;;;;;5.53;97.46;101604.56;4917278;29;20032;-92
2023/01/10 11:31:31;;;;;;;8.05;2.30;;;;;;;5.63;97.12;101597.88;4917187;29;20482;-92
2023/01/10 11:33:57;;;;;;;8.98;2.60;;;;;;;5.55;97.51;101596.06;4917705;29;20044;-92
2023/01/10 11:36:23;;;;;;;8.55;2.50;;;;;;;5.59;96.88;101601.25;4917250;29;20032;-92
2023/01/10 11:39:02;;;;;;;12.05;2.63;;;;;;;5.61;97.00;101591.84;4917386;29;20466;-93
2023/01/10 11:41:32;;;;;;;11.00;2.45;;;;;;;5.68;97.28;101594.56;4916880;29;20044;-92
2023/01/10 11:44:20;;;;;;;14.48;2.80;;;;;;;5.76;96.22;101591.22;4917183;29;20023;-93
2023/01/10 11:46:47;;;;;;;15.05;3.38;;;;;;;5.69;96.75;101591.13;4916528;29;20028;-92
2023/01/10 11:49:25;;;;;;;10.30;2.90;;;;;;;5.69;96.76;101586.00;4916286;29;20033;-91
2023/01/10 11:51:54;;;;;;;10.52;2.53;;;;;;;5.70;96.62;101582.56;4917562;29;20039;-93
2023/01/10 11:54:23;;;;;;;9.65;2.38;;;;;;;5.73;96.47;101584.31;4917227;29;20036;-92
2023/01/10 11:57:07;;;;;;;8.30;2.50;;;;;;;5.72;96.76;101583.47;4916878;29;20028;-93
2023/01/10 11:59:32;;;;;;;10.82;2.30;;;;;;;5.75;96.98;101584.34;4917311;29;20409;-93
2023/01/10 12:02:00;;;;;;;13.52;2.90;;;;;;;5.76;96.37;101578.34;4919742;29;20023;-92
2023/01/10 12:04:29;;;;;;;10.50;2.85;;;;;;;5.78;96.63;101574.97;4920034;29;20470;-92
2023/01/10 12:07:01;;;;;;;7.35;2.60;;;;;;;5.78;96.77;101567.25;4920359;29;20024;-91
2023/01/10 12:09:36;;;;;;;7.63;2.45;;;;;;;5.83;96.70;101569.91;4920270;29;20112;-91
2023/01/10 12:12:19;;;;;;;15.57;2.90;;;;;;;5.83;96.08;101567.31;4919970;29;20032;-92
2023/01/10 12:14:45;;;;;;;11.88;2.80;;;;;;;5.85;96.56;101561.34;4902260;29;20029;-90
2023/01/10 12:17:34;;;;;;;11.35;2.92;;;;;;;5.89;95.51;101549.38;4908748;29;20062;-93
2023/01/10 12:20:02;;;;;;;10.13;2.47;;;;;;;5.92;95.67;101552.00;4920554;29;20075;-93
2023/01/10 12:22:34;;;;;;;10.82;2.75;;;;;;;5.89;95.63;101533.91;4920069;29;20024;-94
2023/01/10 12:25:14;;;;;;;14.05;2.92;;;;;;;5.92;95.38;101533.09;4920529;29;20040;-93
2023/01/10 12:27:39;;;;;;;15.57;3.17;;;;;;;5.89;94.54;101528.75;4920658;29;20063;-93
2023/01/10 12:30:16;;;;;;;13.55;3.10;;;;;;;5.97;94.99;101521.16;4919402;29;20079;-92
2023/01/10 12:32:48;;;;;;;14.32;3.50;;;;;;;5.92;95.19;101531.38;4920255;29;20032;-93
2023/01/10 12:35:18;;;;;;;11.10;2.85;;;;;;;5.92;95.20;101526.25;4920047;29;20150;-92